Archival Weather

Al Kharj

Al Kharj, Saudi Arabia (OEKJ)

Report from: Thursday, September 21, 2023 6:00 AM UTC
Current time: Friday, February 23, 2024 8:12 PM UTC

Current weather – Weather history – Daily summaries
Weather forecast

Temperature36.0°C (96.8°F)
Heat index33.3°C (92.0°F)
Dew point1.0°C (33.8°F)
Winds 3 kts (1.5 m/s, 3.5 mph) Vrb
Winds variableWinds variable
Clouds Sky clear
Altimeter29.94 in.Hg (1014 mB)
Relative humidity11 %
Density altitude2,458 ft. (749 m)
Remarks Ceiling and visibility OK
Flight conditions Visual Meteorological Conditions
Raw dataOEKJ 210600Z VRB03KT CAVOK 36/01 Q1014
An error has occurred. This application may no longer respond until reloaded. Reload 🗙